Time;durP1;ratioP1;P1;durP2;ratioP2;P2;SDS_P1;SDS_P2;PMS_P1;PMS_P2;Temp;Humidity;BMP_temperature;BMP_pressure;BME280_temperature;BME280_humidity;BME280_pressure;Samples;Min_cycle;Max_cycle;Signal;HPM_P1;HPM_P2
2022/08/31 00:03:57;;;;;;;7.13;4.00;;;;;;;22.37;52.90;100520.28;5071743;28;20467;-70
2022/08/31 00:06:23;;;;;;;5.27;4.30;;;;;;;22.35;53.00;100524.19;5069319;28;20470;-70
2022/08/31 00:08:50;;;;;;;5.70;4.60;;;;;;;22.33;53.12;100515.22;5070166;28;20840;-69
2022/08/31 00:11:26;;;;;;;4.93;4.43;;;;;;;22.34;52.97;100522.44;5071337;28;20441;-70
2022/08/31 00:13:53;;;;;;;9.10;4.33;;;;;;;22.37;52.95;100519.44;5070178;28;20782;-70
2022/08/31 00:16:20;;;;;;;5.17;4.67;;;;;;;22.33;53.22;100529.81;5081512;28;20485;-70
2022/08/31 00:18:51;;;;;;;5.53;4.07;;;;;;;22.37;53.04;100525.78;5081618;28;20473;-70
2022/08/31 00:21:18;;;;;;;5.83;4.30;;;;;;;22.34;53.31;100523.34;5073526;28;20459;-70
2022/08/31 00:23:45;;;;;;;6.90;4.40;;;;;;;22.33;53.54;100515.22;5065367;28;20459;-68
2022/08/31 00:26:11;;;;;;;4.93;4.30;;;;;;;22.32;53.70;100521.72;5080269;28;20458;-70
2022/08/31 00:28:38;;;;;;;5.80;4.73;;;;;;;22.26;53.68;100525.91;5075111;28;20496;-70
2022/08/31 00:31:04;;;;;;;4.80;4.40;;;;;;;22.19;53.88;100520.09;5082874;28;20438;-70
2022/08/31 00:33:31;;;;;;;8.97;5.20;;;;;;;22.23;53.69;100532.56;5091515;28;20434;-70
2022/08/31 00:35:59;;;;;;;12.03;4.90;;;;;;;22.32;53.38;100524.47;5092209;28;21330;-70
2022/08/31 00:38:25;;;;;;;4.43;4.00;;;;;;;22.38;53.42;100529.38;5086730;28;20826;-71
2022/08/31 00:40:52;;;;;;;4.27;3.87;;;;;;;22.34;53.62;100536.16;5084568;28;20541;-70
2022/08/31 00:43:38;;;;;;;6.90;4.50;;;;;;;22.27;54.06;100533.13;5084519;28;20443;-68
2022/08/31 00:46:05;;;;;;;5.07;4.10;;;;;;;22.34;53.55;100528.81;5082801;28;20457;-69
2022/08/31 00:48:31;;;;;;;5.40;4.10;;;;;;;22.31;53.81;100534.56;5078957;28;20494;-69
2022/08/31 00:51:00;;;;;;;7.27;4.67;;;;;;;22.26;53.72;100525.91;5078530;28;20930;-70
2022/08/31 00:53:27;;;;;;;5.70;4.00;;;;;;;22.28;54.12;100532.13;5068366;28;20462;-69
2022/08/31 00:55:54;;;;;;;5.53;4.57;;;;;;;22.28;54.29;100519.28;5081527;28;20534;-70
2022/08/31 00:58:21;;;;;;;6.23;4.77;;;;;;;22.24;54.37;100523.31;5076380;28;20466;-71
2022/08/31 01:00:48;;;;;;;5.33;4.40;;;;;;;22.29;54.26;100525.63;5097435;28;20423;-69
2022/08/31 01:03:15;;;;;;;4.73;4.23;;;;;;;22.13;54.55;100519.78;5092618;28;20451;-70
2022/08/31 01:05:42;;;;;;;4.60;3.73;;;;;;;22.15;54.57;100515.91;5083966;28;20436;-70
2022/08/31 01:08:11;;;;;;;7.50;4.10;;;;;;;22.17;54.53;100516.63;5065281;28;20458;-70
2022/08/31 01:10:42;;;;;;;5.63;4.60;;;;;;;22.12;54.84;100515.31;5070026;28;20454;-70
2022/08/31 01:13:11;;;;;;;5.60;4.80;;;;;;;22.25;54.53;100510.44;5082676;28;21145;-69
2022/08/31 01:15:39;;;;;;;10.20;5.03;;;;;;;22.15;54.72;100510.41;5068413;28;20442;-70
2022/08/31 01:18:06;;;;;;;6.80;4.73;;;;;;;22.07;55.38;100510.28;5092550;28;20481;-70
2022/08/31 01:20:45;;;;;;;7.30;4.80;;;;;;;22.03;55.23;100509.66;5091657;28;20462;-70
2022/08/31 01:23:18;;;;;;;4.67;4.23;;;;;;;22.02;55.59;100518.03;5083494;28;20426;-70
2022/08/31 01:25:46;;;;;;;6.90;4.87;;;;;;;21.97;55.74;100517.59;5094272;28;20497;-69
2022/08/31 01:28:13;;;;;;;5.60;4.93;;;;;;;21.98;55.82;100522.06;5094487;28;20441;-69
2022/08/31 01:30:42;;;;;;;5.20;4.40;;;;;;;22.02;55.86;100518.03;5068671;28;20825;-68
2022/08/31 01:33:10;;;;;;;5.27;4.43;;;;;;;21.99;56.09;100523.81;5079159;28;20468;-69
2022/08/31 01:35:45;;;;;;;5.73;4.53;;;;;;;21.97;56.28;100517.59;5080514;28;20449;-70
2022/08/31 01:38:12;;;;;;;6.50;4.83;;;;;;;22.04;56.17;100521.50;5074988;28;20470;-70
2022/08/31 01:40:50;;;;;;;6.33;4.60;;;;;;;22.01;56.27;100525.38;5063845;28;20459;-69
2022/08/31 01:43:16;;;;;;;4.20;3.90;;;;;;;22.05;56.51;100523.25;5084104;28;20484;-71
2022/08/31 01:45:43;;;;;;;6.73;4.50;;;;;;;21.99;56.70;100524.66;5079773;28;20542;-70
2022/08/31 01:48:11;;;;;;;5.17;4.67;;;;;;;22.01;56.79;100527.28;5081599;28;20435;-69
2022/08/31 01:50:39;;;;;;;5.77;5.17;;;;;;;22.01;56.44;100527.28;5071938;28;20456;-70
2022/08/31 01:53:05;;;;;;;8.43;5.07;;;;;;;21.99;56.92;100515.56;5077251;28;20544;-70
2022/08/31 01:55:32;;;;;;;6.30;4.90;;;;;;;21.93;57.04;100521.63;5077265;28;20451;-70
2022/08/31 01:58:00;;;;;;;4.87;4.47;;;;;;;21.86;57.53;100522.16;5074765;28;20487;-69
2022/08/31 02:00:27;;;;;;;6.80;4.97;;;;;;;21.83;57.71;100522.44;5071951;28;20486;-70
2022/08/31 02:02:55;;;;;;;5.30;4.47;;;;;;;21.80;57.84;100525.47;5073163;28;20462;-69
2022/08/31 02:05:21;;;;;;;6.80;4.43;;;;;;;21.84;58.00;100517.84;5081384;28;20443;-70
2022/08/31 02:07:48;;;;;;;7.13;4.20;;;;;;;21.84;57.80;100520.56;5078154;28;20454;-69
2022/08/31 02:10:15;;;;;;;6.80;4.83;;;;;;;21.84;57.98;100518.72;5086007;28;20454;-70
2022/08/31 02:12:41;;;;;;;5.10;4.40;;;;;;;21.86;57.99;100518.56;5094717;28;21032;-69
2022/08/31 02:15:10;;;;;;;7.50;5.13;;;;;;;21.82;58.33;100512.50;5079792;28;20937;-70
2022/08/31 02:17:37;;;;;;;5.53;5.00;;;;;;;21.80;58.29;100520.00;5067681;28;20482;-69
2022/08/31 02:20:05;;;;;;;5.50;5.00;;;;;;;21.78;58.48;100511.03;5076190;28;20837;-70
2022/08/31 02:22:32;;;;;;;5.20;4.47;;;;;;;21.80;58.46;100520.00;5072544;28;20544;-69
2022/08/31 02:24:58;;;;;;;5.60;4.87;;;;;;;21.81;58.51;100523.59;5083870;28;20449;-69
2022/08/31 02:27:25;;;;;;;6.57;4.50;;;;;;;21.88;58.47;100532.13;5074362;28;20454;-69
2022/08/31 02:29:52;;;;;;;5.27;4.77;;;;;;;21.74;58.94;100528.78;5079450;28;20475;-69
2022/08/31 02:32:21;;;;;;;5.20;4.70;;;;;;;21.62;59.51;100540.84;5073005;28;20438;-69
2022/08/31 02:34:47;;;;;;;5.20;4.70;;;;;;;21.62;60.07;100549.06;5073350;28;20833;-69
2022/08/31 02:37:14;;;;;;;5.83;5.33;;;;;;;21.62;59.95;100543.59;5072639;28;20474;-69
2022/08/31 02:39:41;;;;;;;5.80;5.20;;;;;;;21.57;60.10;100551.34;5071224;28;20847;-69
2022/08/31 02:42:07;;;;;;;6.07;5.47;;;;;;;21.67;60.04;100551.41;5066680;28;20959;-69
2022/08/31 02:44:34;;;;;;;7.90;5.37;;;;;;;21.72;59.92;100551.84;5084233;28;20449;-69
2022/08/31 02:47:01;;;;;;;5.90;5.40;;;;;;;21.68;60.11;100547.63;5079403;28;20454;-70
2022/08/31 02:49:28;;;;;;;6.23;5.63;;;;;;;21.64;60.28;100561.63;5070317;28;20525;-70
2022/08/31 02:51:55;;;;;;;6.57;5.70;;;;;;;21.59;60.59;100558.41;5082316;28;20436;-70
2022/08/31 02:54:21;;;;;;;6.23;4.87;;;;;;;21.66;60.33;100545.03;5087813;28;20465;-70
2022/08/31 02:56:48;;;;;;;5.53;4.97;;;;;;;21.67;60.33;100538.56;5086092;28;20856;-70
2022/08/31 02:59:15;;;;;;;7.10;4.70;;;;;;;21.55;60.82;100537.78;5079539;28;20480;-69
2022/08/31 03:01:41;;;;;;;8.40;5.83;;;;;;;21.53;61.09;100544.41;5078916;28;20493;-71
2022/08/31 03:04:09;;;;;;;6.77;5.63;;;;;;;21.44;61.28;100544.22;5071828;28;20433;-70
2022/08/31 03:06:39;;;;;;;6.27;5.63;;;;;;;21.42;61.90;100543.50;5086966;28;20458;-70
2022/08/31 03:09:05;;;;;;;5.80;5.30;;;;;;;21.43;61.73;100549.81;5084098;28;20854;-70
2022/08/31 03:11:32;;;;;;;6.27;5.33;;;;;;;21.50;61.44;100544.66;5074965;28;20553;-69
2022/08/31 03:13:59;;;;;;;6.67;5.53;;;;;;;21.49;61.66;100551.16;5072383;28;20439;-69
2022/08/31 03:16:25;;;;;;;6.20;5.60;;;;;;;21.43;62.13;100544.34;5075079;28;20447;-71
2022/08/31 03:18:52;;;;;;;5.63;5.13;;;;;;;21.43;62.07;100547.09;5066919;28;20486;-71
2022/08/31 03:21:18;;;;;;;7.40;5.00;;;;;;;21.41;62.22;100549.09;5078041;28;20434;-71
2022/08/31 03:23:46;;;;;;;12.27;6.30;;;;;;;21.45;62.16;100547.81;5066214;28;20460;-71
2022/08/31 03:26:13;;;;;;;6.27;5.67;;;;;;;21.47;62.12;100550.44;5070543;28;20488;-70
2022/08/31 03:28:40;;;;;;;6.70;5.50;;;;;;;21.46;62.01;100538.63;5062634;28;20470;-70
2022/08/31 03:31:07;;;;;;;6.13;5.53;;;;;;;21.49;61.97;100551.16;5072308;28;20462;-70
2022/08/31 03:33:33;;;;;;;8.37;5.43;;;;;;;21.40;62.45;100550.06;5073332;28;20538;-70
2022/08/31 03:36:03;;;;;;;5.83;5.33;;;;;;;21.36;62.72;100549.47;5086337;28;20458;-71
2022/08/31 03:38:30;;;;;;;7.60;5.43;;;;;;;21.35;63.04;100545.00;5079284;28;20481;-70
2022/08/31 03:40:58;;;;;;;6.20;5.30;;;;;;;21.32;63.25;100549.88;5079491;28;20453;-70
2022/08/31 03:43:25;;;;;;;6.53;5.23;;;;;;;21.30;63.77;100560.09;5067399;28;20461;-70
2022/08/31 03:45:51;;;;;;;12.73;6.90;;;;;;;21.34;63.51;100550.63;5070941;28;20480;-70
2022/08/31 03:48:18;;;;;;;13.47;6.70;;;;;;;21.33;63.82;100555.22;5077274;28;20940;-70
2022/08/31 03:50:45;;;;;;;11.90;6.00;;;;;;;21.40;63.51;100558.31;5071543;28;20459;-70
2022/08/31 03:53:12;;;;;;;12.83;6.93;;;;;;;21.38;63.69;100558.44;5071907;28;20549;-70
2022/08/31 03:55:41;;;;;;;15.80;6.90;;;;;;;21.32;64.13;100569.06;5069965;28;20798;-70
2022/08/31 03:58:10;;;;;;;14.57;7.30;;;;;;;21.26;64.38;100569.63;5077433;28;20489;-71
2022/08/31 04:00:39;;;;;;;12.60;6.83;;;;;;;21.24;64.58;100580.69;5074688;28;20442;-70
2022/08/31 04:03:06;;;;;;;12.13;8.47;;;;;;;21.23;65.01;100573.47;5078676;28;20434;-70
2022/08/31 04:05:34;;;;;;;13.73;8.27;;;;;;;21.30;64.50;100574.69;5073706;28;20439;-69
2022/08/31 04:08:01;;;;;;;8.80;6.47;;;;;;;21.30;64.56;100571.94;5066063;28;20458;-70
2022/08/31 04:10:27;;;;;;;9.37;6.83;;;;;;;21.30;64.46;100579.28;5077136;28;20468;-69
2022/08/31 04:12:54;;;;;;;9.60;6.37;;;;;;;21.29;64.71;100580.28;5096088;28;20560;-70
2022/08/31 04:15:22;;;;;;;6.97;6.27;;;;;;;21.24;64.80;100576.06;5093479;28;20448;-70
2022/08/31 04:17:48;;;;;;;6.70;6.00;;;;;;;21.23;65.18;100577.09;5092222;28;20847;-70
2022/08/31 04:20:15;;;;;;;6.90;5.17;;;;;;;21.23;65.26;100577.09;5058920;28;20554;-71
2022/08/31 04:22:41;;;;;;;6.07;5.47;;;;;;;21.23;65.58;100585.31;5067271;28;20468;-70
2022/08/31 04:25:09;;;;;;;7.57;5.60;;;;;;;21.24;65.56;100588.91;5083346;28;20465;-70
2022/08/31 04:27:36;;;;;;;10.80;7.40;;;;;;;21.24;65.83;100588.91;5076724;28;20442;-70
2022/08/31 04:30:04;;;;;;;9.40;7.50;;;;;;;21.22;65.88;100591.78;5080784;28;20482;-68
2022/08/31 04:32:32;;;;;;;10.50;8.03;;;;;;;21.15;66.44;100589.72;5078567;28;20459;-68
2022/08/31 04:35:00;;;;;;;14.87;11.73;;;;;;;21.15;66.40;100595.19;5078371;28;20835;-72
2022/08/31 04:37:27;;;;;;;19.80;13.43;;;;;;;21.23;66.23;100593.53;5066136;28;20472;-70
2022/08/31 04:39:55;;;;;;;21.43;11.00;;;;;;;21.21;66.60;100598.28;5077056;28;20549;-72
2022/08/31 04:42:22;;;;;;;21.07;10.60;;;;;;;21.21;66.46;100595.53;5071785;28;20446;-69
2022/08/31 04:44:50;;;;;;;15.07;9.77;;;;;;;21.24;66.70;100599.88;5077088;28;20454;-70
2022/08/31 04:47:17;;;;;;;14.67;9.00;;;;;;;21.32;66.32;100600.03;5074431;28;20650;-69
2022/08/31 04:49:45;;;;;;;10.73;8.60;;;;;;;21.22;66.78;100610.09;5068818;28;20876;-69
2022/08/31 04:52:12;;;;;;;12.80;8.70;;;;;;;21.27;66.63;100605.06;5084219;28;20517;-67
2022/08/31 04:54:38;;;;;;;12.23;7.93;;;;;;;21.30;66.30;100602.09;5089269;28;20458;-70
2022/08/31 04:57:05;;;;;;;12.17;7.13;;;;;;;21.34;66.56;100608.13;5093818;28;20441;-73
2022/08/31 04:59:32;;;;;;;8.30;6.80;;;;;;;21.33;66.51;100610.03;5081485;28;20476;-70
2022/08/31 05:01:58;;;;;;;13.17;7.20;;;;;;;21.33;66.81;100609.16;5073212;28;20482;-70
2022/08/31 05:04:27;;;;;;;14.53;6.57;;;;;;;21.34;66.83;100605.41;5083182;28;20955;-72
2022/08/31 05:06:56;;;;;;;8.30;6.00;;;;;;;21.34;66.71;100611.75;5085301;28;20541;-70
2022/08/31 05:09:23;;;;;;;6.27;5.20;;;;;;;21.36;66.75;100608.88;5074299;28;20490;-70
2022/08/31 05:11:51;;;;;;;9.70;5.80;;;;;;;21.29;67.08;100611.28;5073300;28;20613;-73
2022/08/31 05:14:20;;;;;;;6.10;5.43;;;;;;;21.34;66.94;100616.34;5080251;28;20456;-70
2022/08/31 05:16:47;;;;;;;8.57;5.17;;;;;;;21.35;67.05;100618.09;5089585;28;20450;-70
2022/08/31 05:19:14;;;;;;;6.70;6.10;;;;;;;21.36;67.31;100630.78;5073983;28;20509;-70
2022/08/31 05:21:42;;;;;;;5.83;5.33;;;;;;;21.29;67.74;100630.44;5080131;28;20778;-73
2022/08/31 05:24:13;;;;;;;7.80;6.03;;;;;;;21.27;67.95;100631.59;5076422;28;20435;-72
2022/08/31 05:26:43;;;;;;;9.60;5.80;;;;;;;21.33;67.93;100620.97;5078773;28;20513;-72
2022/08/31 05:29:12;;;;;;;6.63;5.37;;;;;;;21.35;68.13;100631.81;5083497;28;20482;-73
2022/08/31 05:31:39;;;;;;;12.40;6.50;;;;;;;21.44;67.52;100626.41;5079039;28;20434;-71
2022/08/31 05:34:06;;;;;;;10.03;6.40;;;;;;;21.40;68.59;100635.00;5076262;28;20443;-72
2022/08/31 05:36:32;;;;;;;9.57;5.97;;;;;;;21.40;68.79;100632.28;5081001;28;20473;-72
2022/08/31 05:39:00;;;;;;;6.80;5.90;;;;;;;21.40;69.01;100633.16;5075283;28;20495;-70
2022/08/31 05:41:29;;;;;;;8.67;6.27;;;;;;;21.33;69.69;100631.94;5086028;28;20447;-72
2022/08/31 05:43:55;;;;;;;6.37;5.60;;;;;;;21.18;70.68;100636.00;5079868;28;20446;-71
2022/08/31 05:46:22;;;;;;;7.63;6.40;;;;;;;21.16;71.03;100630.63;5093016;28;20430;-71
2022/08/31 05:48:48;;;;;;;6.23;5.60;;;;;;;21.09;71.86;100631.31;5094060;28;20462;-71
2022/08/31 05:51:17;;;;;;;9.40;6.90;;;;;;;21.06;72.13;100635.19;5091963;28;20448;-71
2022/08/31 05:53:44;;;;;;;7.97;6.20;;;;;;;20.93;73.56;100639.97;5096029;28;20428;-72
2022/08/31 05:56:14;;;;;;;6.67;5.90;;;;;;;20.86;74.20;100639.63;5082782;28;20450;-71
2022/08/31 05:58:44;;;;;;;10.47;6.23;;;;;;;20.96;73.94;100640.59;5075407;28;20489;-70
2022/08/31 06:01:15;;;;;;;7.10;6.40;;;;;;;20.99;73.77;100640.31;5086245;28;20438;-71
2022/08/31 06:03:42;;;;;;;8.47;6.17;;;;;;;21.03;73.84;100650.00;5094891;28;20434;-71
2022/08/31 06:06:10;;;;;;;8.50;6.23;;;;;;;21.07;73.81;100645.13;5095094;28;20828;-71
2022/08/31 06:08:37;;;;;;;10.27;7.03;;;;;;;21.03;73.99;100651.88;5095108;28;20458;-70
2022/08/31 06:11:05;;;;;;;6.30;5.63;;;;;;;21.02;74.32;100647.41;5094352;28;20540;-69
2022/08/31 06:13:31;;;;;;;9.23;6.80;;;;;;;21.04;74.16;100648.13;5092424;28;20449;-71
2022/08/31 06:16:03;;;;;;;9.97;6.27;;;;;;;21.07;73.92;100652.47;5081306;28;20447;-71
2022/08/31 06:18:29;;;;;;;8.37;5.90;;;;;;;21.03;74.07;100647.28;5079797;28;20485;-72
2022/08/31 06:21:07;;;;;;;7.70;6.00;;;;;;;21.02;74.37;100656.47;5084343;28;20442;-69
2022/08/31 06:23:35;;;;;;;11.93;6.10;;;;;;;21.03;73.89;100649.16;5095189;28;20429;-71
2022/08/31 06:26:04;;;;;;;13.30;6.57;;;;;;;21.12;72.89;100653.84;5079094;28;20434;-70
2022/08/31 06:28:32;;;;;;;6.27;5.63;;;;;;;21.13;72.63;100651.97;5074483;28;20461;-70
2022/08/31 06:30:59;;;;;;;7.30;5.77;;;;;;;21.17;71.82;100654.31;5073407;28;20967;-69
2022/08/31 06:33:29;;;;;;;6.90;5.30;;;;;;;21.10;72.28;100661.31;5073453;28;20805;-71
2022/08/31 06:35:56;;;;;;;7.77;6.10;;;;;;;21.12;71.95;100659.31;5074420;28;20435;-70
2022/08/31 06:38:22;;;;;;;7.40;6.50;;;;;;;21.07;72.21;100657.94;5091220;28;20473;-70
2022/08/31 06:40:49;;;;;;;5.83;5.23;;;;;;;21.15;71.59;100661.78;5088005;28;20864;-70
2022/08/31 06:43:15;;;;;;;7.00;5.37;;;;;;;21.11;71.75;100659.44;5076257;28;20435;-71
2022/08/31 06:45:42;;;;;;;6.00;5.33;;;;;;;21.09;72.30;100659.56;5095016;28;20438;-71
2022/08/31 06:48:08;;;;;;;7.50;6.07;;;;;;;21.07;72.09;100668.91;5081914;28;20435;-75
2022/08/31 06:50:37;;;;;;;5.20;4.70;;;;;;;21.13;71.70;100673.88;5090891;28;20502;-75
2022/08/31 06:53:04;;;;;;;7.90;5.27;;;;;;;21.12;71.80;100673.00;5086932;28;20458;-76
2022/08/31 06:55:31;;;;;;;6.67;5.27;;;;;;;21.13;71.26;100666.50;5089798;28;20525;-76
2022/08/31 06:57:58;;;;;;;8.13;5.70;;;;;;;21.24;70.72;100674.69;5111971;28;20520;-76
2022/08/31 07:00:26;;;;;;;8.80;8.00;;;;;;;21.28;70.66;100678.03;5104426;28;20546;-76
2022/08/31 07:02:53;;;;;;;15.10;6.00;;;;;;;21.27;70.61;100681.75;5108189;28;20446;-76
2022/08/31 07:05:19;;;;;;;5.57;4.97;;;;;;;21.29;70.35;100671.53;5096098;28;20487;-74
2022/08/31 07:07:47;;;;;;;7.03;5.23;;;;;;;21.39;70.38;100688.94;5090159;28;20450;-76
2022/08/31 07:10:14;;;;;;;9.67;4.80;;;;;;;21.45;69.61;100682.94;5078292;28;20557;-75
2022/08/31 07:12:40;;;;;;;7.97;5.63;;;;;;;21.56;69.26;100686.63;5089791;28;20434;-75
2022/08/31 07:15:07;;;;;;;6.63;5.63;;;;;;;21.60;68.76;100682.63;5089442;28;20445;-77
2022/08/31 07:17:34;;;;;;;5.80;5.20;;;;;;;21.53;69.12;100685.03;5077085;28;20867;-76
2022/08/31 07:20:01;;;;;;;5.90;4.60;;;;;;;21.71;68.18;100690.78;5086516;28;20505;-76
2022/08/31 07:22:27;;;;;;;6.77;5.50;;;;;;;21.82;68.05;100687.97;5097783;28;20623;-75
2022/08/31 07:24:55;;;;;;;5.77;5.20;;;;;;;21.89;67.34;100690.13;5097548;28;20816;-75
2022/08/31 07:27:22;;;;;;;7.70;4.90;;;;;;;21.84;67.79;100696.91;5077472;28;20526;-73
2022/08/31 07:29:48;;;;;;;7.80;5.73;;;;;;;21.84;67.75;100696.91;5075866;28;20542;-76
2022/08/31 07:32:16;;;;;;;5.57;4.93;;;;;;;21.82;67.84;100700.78;5079466;28;20443;-75
2022/08/31 07:34:43;;;;;;;5.93;5.33;;;;;;;21.73;68.48;100699.75;5083693;28;20434;-75
2022/08/31 07:42:42;;;;;;;9.00;5.23;;;;;;;22.06;66.58;100709.56;5078592;28;20442;-73
2022/08/31 07:45:12;;;;;;;9.20;5.13;;;;;;;22.10;66.35;100715.66;5096008;28;20528;-76
2022/08/31 07:47:44;;;;;;;5.20;4.70;;;;;;;22.03;66.87;100712.59;5096966;28;20529;-76
2022/08/31 07:50:15;;;;;;;7.43;4.70;;;;;;;22.04;67.01;100718.94;5095172;28;20468;-75
2022/08/31 07:52:52;;;;;;;6.30;5.10;;;;;;;22.01;66.87;100714.59;5094908;28;20895;-76
2022/08/31 07:55:23;;;;;;;7.63;5.77;;;;;;;22.02;66.90;100718.22;5094298;28;20463;-76
2022/08/31 07:57:54;;;;;;;7.60;4.93;;;;;;;22.11;66.70;100724.75;5093598;28;20859;-77
2022/08/31 08:00:25;;;;;;;8.77;5.20;;;;;;;22.20;66.06;100718.44;5073065;28;20482;-76
2022/08/31 08:02:55;;;;;;;10.97;5.80;;;;;;;22.12;66.06;100721.88;5077665;28;20420;-75
2022/08/31 08:05:24;;;;;;;6.23;5.30;;;;;;;22.04;66.20;100724.44;5076144;28;20495;-76
2022/08/31 08:07:54;;;;;;;6.27;5.53;;;;;;;22.10;66.20;100726.63;5075181;28;20943;-75
2022/08/31 08:10:23;;;;;;;6.23;5.10;;;;;;;22.17;66.02;100729.72;5076164;28;20458;-77
2022/08/31 08:12:57;;;;;;;5.80;5.20;;;;;;;22.10;66.37;100732.13;5075919;28;20815;-76
2022/08/31 08:15:24;;;;;;;8.60;5.53;;;;;;;22.23;66.05;100730.06;5074734;28;20435;-77
2022/08/31 08:17:51;;;;;;;6.23;5.63;;;;;;;22.27;65.39;100737.03;5074069;28;20514;-77
2022/08/31 08:20:18;;;;;;;7.80;5.27;;;;;;;22.10;66.52;100739.50;5074567;28;20466;-76
2022/08/31 08:22:46;;;;;;;6.37;5.07;;;;;;;22.09;66.44;100733.13;5074771;28;20438;-76
2022/08/31 08:25:13;;;;;;;8.30;6.10;;;;;;;22.20;66.31;100741.25;5074685;28;20531;-76
2022/08/31 08:27:41;;;;;;;6.80;5.70;;;;;;;22.21;66.07;100742.16;5074292;28;20451;-77
2022/08/31 08:30:12;;;;;;;6.87;4.70;;;;;;;22.24;65.95;100744.66;5073799;28;20466;-77
2022/08/31 08:32:39;;;;;;;7.87;5.53;;;;;;;22.16;66.63;100745.31;5073699;28;20523;-76
2022/08/31 08:35:07;;;;;;;6.13;5.53;;;;;;;22.40;65.98;100755.97;5074623;28;20427;-77
2022/08/31 08:37:34;;;;;;;13.33;6.73;;;;;;;22.21;66.37;100750.38;5073306;28;20442;-76
2022/08/31 08:40:04;;;;;;;12.77;6.33;;;;;;;22.26;66.66;100750.88;5073957;28;20502;-77
2022/08/31 08:42:31;;;;;;;10.50;6.13;;;;;;;22.42;66.04;100753.97;5079532;28;20887;-76
2022/08/31 08:44:59;;;;;;;6.00;5.40;;;;;;;22.36;65.88;100750.91;5093761;28;20473;-75
2022/08/31 08:47:31;;;;;;;7.50;5.60;;;;;;;22.46;65.58;100752.69;5072747;28;20439;-78
2022/08/31 08:50:02;;;;;;;5.97;5.30;;;;;;;22.41;65.67;100757.72;5082068;28;20458;-76
2022/08/31 08:52:40;;;;;;;10.10;5.57;;;;;;;22.36;65.76;100762.75;5076255;28;20443;-75
2022/08/31 08:55:10;;;;;;;7.60;5.30;;;;;;;22.31;65.90;100755.94;5086673;28;20443;-76
2022/08/31 08:57:41;;;;;;;8.60;5.30;;;;;;;22.42;65.49;100755.84;5077429;28;20956;-77
2022/08/31 09:00:15;;;;;;;6.53;4.73;;;;;;;22.47;65.04;100759.03;5082894;28;21048;-76
2022/08/31 09:02:46;;;;;;;5.53;4.70;;;;;;;22.50;64.98;100764.28;5067326;28;20455;-75
2022/08/31 09:05:29;;;;;;;7.50;5.07;;;;;;;22.63;63.78;100759.38;5069177;28;20459;-76
2022/08/31 09:08:27;;;;;;;7.70;5.90;;;;;;;22.78;63.08;100759.03;5090034;28;20502;-77
2022/08/31 09:11:05;;;;;;;6.27;5.60;;;;;;;22.79;63.28;100753.38;5078929;28;20461;-76
2022/08/31 09:13:38;;;;;;;8.27;5.23;;;;;;;22.78;63.31;100759.03;5080603;28;20468;-77
2022/08/31 09:16:25;;;;;;;6.77;4.93;;;;;;;22.79;63.16;100753.38;5097268;28;20791;-75
2022/08/31 09:18:56;;;;;;;6.10;5.00;;;;;;;22.83;63.39;100753.97;5084681;28;20485;-76
2022/08/31 09:21:27;;;;;;;6.30;5.33;;;;;;;22.99;63.09;100757.06;5084947;28;20449;-75
2022/08/31 09:24:01;;;;;;;7.47;5.30;;;;;;;23.08;62.44;100752.59;5084513;28;20449;-77
2022/08/31 09:26:32;;;;;;;7.07;5.37;;;;;;;22.93;62.54;100746.63;5083363;28;20516;-76
2022/08/31 09:29:02;;;;;;;8.63;4.93;;;;;;;22.90;63.12;100744.16;5081606;28;20902;-77
2022/08/31 09:31:36;;;;;;;7.97;5.73;;;;;;;23.03;62.85;100755.78;5080563;28;20450;-74
2022/08/31 09:34:07;;;;;;;10.20;5.67;;;;;;;22.88;63.52;100752.56;5090429;28;20466;-76
2022/08/31 09:36:37;;;;;;;8.57;5.10;;;;;;;22.92;63.42;100753.13;5080289;28;20545;-76
2022/08/31 09:39:16;;;;;;;15.33;4.87;;;;;;;23.16;62.91;100754.66;5074915;28;20486;-78
2022/08/31 09:41:42;;;;;;;7.77;5.30;;;;;;;23.31;62.63;100755.94;5082672;28;20458;-73
2022/08/31 09:44:28;;;;;;;10.43;5.70;;;;;;;23.21;63.16;100755.09;5073568;28;20459;-71
2022/08/31 09:47:01;;;;;;;6.70;6.00;;;;;;;23.05;63.52;100759.25;5074094;28;20462;-71
2022/08/31 09:49:29;;;;;;;5.90;5.40;;;;;;;23.25;63.12;100756.56;5079809;28;20510;-72
2022/08/31 09:55:11;;;;;;;8.93;5.77;;;;;;;23.39;62.42;100761.59;5086568;28;20445;-70
2022/08/31 09:55:16;;;;;;;5.77;5.17;;;;;;;23.65;61.56;100752.78;5095882;28;20414;-72
2022/08/31 09:57:52;;;;;;;8.70;4.83;;;;;;;23.77;60.96;100759.03;5095295;28;20433;-70
2022/08/31 10:00:30;;;;;;;9.57;5.27;;;;;;;23.88;60.13;100751.50;5096982;28;20489;-71
2022/08/31 10:03:08;;;;;;;13.10;5.30;;;;;;;24.03;59.73;100751.88;5094155;28;20422;-71
2022/08/31 10:05:39;;;;;;;10.23;5.30;;;;;;;24.12;58.70;100759.22;5094197;28;20430;-70
2022/08/31 10:08:17;;;;;;;5.37;4.90;;;;;;;24.22;58.10;100748.22;5094101;28;20522;-70
2022/08/31 10:10:45;;;;;;;7.43;5.67;;;;;;;24.26;57.63;100744.16;5094217;28;20879;-71
2022/08/31 10:13:16;;;;;;;5.90;5.20;;;;;;;24.41;57.16;100752.78;5084467;28;20511;-71
2022/08/31 10:15:51;;;;;;;5.27;4.77;;;;;;;24.40;56.76;100751.06;5074297;28;20465;-73
2022/08/31 10:18:28;;;;;;;6.70;5.30;;;;;;;24.58;56.56;100748.41;5074520;28;20422;-70
2022/08/31 10:21:04;;;;;;;5.73;5.23;;;;;;;24.80;55.62;100755.38;5074272;28;20445;-72
2022/08/31 10:23:35;;;;;;;7.50;5.33;;;;;;;24.88;55.20;100757.38;5075185;28;20443;-73
2022/08/31 10:26:06;;;;;;;14.97;5.40;;;;;;;25.14;54.77;100751.97;5075268;28;20451;-71
2022/08/31 10:28:40;;;;;;;8.13;5.50;;;;;;;25.25;54.10;100754.53;5073886;28;20454;-70
2022/08/31 10:31:12;;;;;;;9.43;5.00;;;;;;;25.43;53.53;100749.03;5073908;28;20427;-70
2022/08/31 10:36:39;;;;;;;7.80;4.80;;;;;;;25.91;52.22;100744.13;5011652;28;20433;-72
2022/08/31 10:39:18;;;;;;;5.07;4.67;;;;;;;26.28;50.75;100745.78;5011408;28;20580;-71
2022/08/31 10:41:49;;;;;;;6.10;5.47;;;;;;;26.41;50.03;100752.56;5011209;28;20433;-71
2022/08/31 10:44:22;;;;;;;5.70;4.33;;;;;;;26.82;48.78;100757.47;5011216;28;20541;-70
2022/08/31 10:46:53;;;;;;;5.63;4.23;;;;;;;27.20;47.89;100756.06;5017894;28;20441;-71
2022/08/31 10:49:21;;;;;;;5.10;4.60;;;;;;;27.36;46.71;100763.50;5018934;28;20481;-72
2022/08/31 10:51:55;;;;;;;5.73;5.17;;;;;;;27.36;46.38;100759.84;5019327;28;20448;-70
2022/08/31 10:54:35;;;;;;;5.33;4.33;;;;;;;27.65;45.72;100764.91;5021490;28;20483;-72
2022/08/31 10:57:18;;;;;;;8.40;4.60;;;;;;;28.40;43.89;100752.72;5014767;28;20499;-71
2022/08/31 10:59:53;;;;;;;5.40;4.77;;;;;;;29.47;41.95;100755.91;5011813;28;20534;-71
2022/08/31 11:02:51;;;;;;;6.50;4.73;;;;;;;30.20;39.78;100753.56;5011511;28;20436;-71
2022/08/31 11:05:31;;;;;;;4.63;4.23;;;;;;;31.76;37.45;100758.78;5011280;28;20469;-71
2022/08/31 11:08:05;;;;;;;5.10;3.80;;;;;;;33.05;35.13;100756.69;5009730;28;20418;-71
2022/08/31 11:10:42;;;;;;;4.63;3.87;;;;;;;32.99;34.90;100750.91;5010845;28;20423;-71
2022/08/31 11:13:19;;;;;;;5.43;4.40;;;;;;;32.94;34.77;100755.34;5039555;28;20438;-70
2022/08/31 11:16:20;;;;;;;6.43;4.27;;;;;;;31.81;36.20;100760.97;5068148;28;20463;-71
2022/08/31 11:19:25;;;;;;;4.50;4.10;;;;;;;32.44;35.30;100744.34;5071676;28;20458;-70
2022/08/31 11:22:15;;;;;;;7.50;3.80;;;;;;;33.84;33.36;100751.31;5010384;28;20852;-71
2022/08/31 11:25:13;;;;;;;9.03;4.30;;;;;;;34.70;32.10;100749.53;5010459;28;20462;-72
2022/08/31 11:27:44;;;;;;;7.80;4.20;;;;;;;34.80;31.80;100751.88;5008629;28;21013;-71
2022/08/31 11:30:26;;;;;;;6.47;3.77;;;;;;;34.25;32.29;100746.59;5010471;28;20496;-71
2022/08/31 11:32:55;;;;;;;4.07;3.67;;;;;;;33.08;33.90;100746.00;5010657;28;20445;-72
2022/08/31 11:35:59;;;;;;;10.80;4.67;;;;;;;32.87;34.27;100751.69;5009767;28;21646;-71
2022/08/31 11:38:53;;;;;;;4.17;3.87;;;;;;;32.68;34.41;100744.97;5009427;28;20987;-70
2022/08/31 11:41:34;;;;;;;5.10;4.50;;;;;;;31.64;36.00;100742.84;5024232;28;20870;-70
2022/08/31 11:44:02;;;;;;;5.07;3.60;;;;;;;31.85;35.68;100740.03;5018848;28;20449;-71
2022/08/31 11:47:03;;;;;;;4.20;3.90;;;;;;;31.50;35.85;100739.94;5023144;28;20471;-70
2022/08/31 11:49:45;;;;;;;4.00;3.70;;;;;;;30.89;37.08;100737.50;5022367;28;20467;-69